createdAt,value
2023-01-29T00:02:12.665Z,0.94
2023-01-29T00:04:50.093Z,0.88
2023-01-29T00:07:19.905Z,0.84
2023-01-29T00:09:49.763Z,0.79
2023-01-29T00:12:19.943Z,0.75
2023-01-29T00:14:49.205Z,0.72
2023-01-29T00:17:16.024Z,0.72
2023-01-29T00:19:42.885Z,0.70
2023-01-29T00:22:09.993Z,0.68
2023-01-29T00:24:39.623Z,0.66
2023-01-29T00:27:06.630Z,0.65
2023-01-29T00:29:33.535Z,0.63
2023-01-29T00:32:03.192Z,0.63
2023-01-29T00:34:30.082Z,0.64
2023-01-29T00:37:04.086Z,0.61
2023-01-29T00:39:47.520Z,0.59
2023-01-29T00:42:33.508Z,0.60
2023-01-29T00:45:00.573Z,0.59
2023-01-29T00:47:30.212Z,0.59
2023-01-29T00:49:57.536Z,0.57
2023-01-29T00:52:26.366Z,0.56
2023-01-29T00:54:57.968Z,0.58
2023-01-29T00:57:27.307Z,0.59
2023-01-29T00:59:56.628Z,0.61
2023-01-29T01:02:42.929Z,0.61
2023-01-29T01:05:15.733Z,0.60
2023-01-29T01:07:44.917Z,0.60
2023-01-29T01:10:21.089Z,0.62
2023-01-29T01:13:02.152Z,0.62
2023-01-29T01:15:31.978Z,0.59
2023-01-29T01:18:00.829Z,0.59
2023-01-29T01:20:29.851Z,0.56
2023-01-29T01:22:57.101Z,0.56
2023-01-29T01:25:26.200Z,0.58
2023-01-29T01:27:53.524Z,0.59
2023-01-29T01:30:21.342Z,0.56
2023-01-29T01:32:48.951Z,0.54
2023-01-29T01:35:19.943Z,0.53
2023-01-29T01:37:47.708Z,0.51
2023-01-29T01:40:18.943Z,0.49
2023-01-29T01:42:50.971Z,0.44
2023-01-29T01:45:27.986Z,0.39
2023-01-29T01:48:12.499Z,0.37
2023-01-29T01:50:42.737Z,0.34
2023-01-29T01:53:17.160Z,0.37
2023-01-29T01:55:50.629Z,0.37
2023-01-29T01:58:35.467Z,0.37
2023-01-29T02:01:10.243Z,0.40
2023-01-29T02:04:12.466Z,0.42
2023-01-29T02:06:59.256Z,0.42
2023-01-29T02:09:36.396Z,0.46
2023-01-29T02:12:12.116Z,0.53
2023-01-29T02:14:41.044Z,0.59
2023-01-29T02:17:12.217Z,0.64
2023-01-29T02:20:04.179Z,0.65
2023-01-29T02:23:03.399Z,0.66
2023-01-29T02:26:02.503Z,0.67
2023-01-29T02:28:54.530Z,0.64
2023-01-29T02:31:27.174Z,0.62
2023-01-29T02:34:15.678Z,0.62
2023-01-29T02:37:09.139Z,0.57
2023-01-29T02:39:53.095Z,0.52
2023-01-29T02:42:50.738Z,0.47
2023-01-29T02:45:52.351Z,0.43
2023-01-29T02:48:25.901Z,0.39
2023-01-29T02:51:06.975Z,0.38
2023-01-29T02:53:49.755Z,0.38
2023-01-29T02:56:52.762Z,0.34
2023-01-29T02:59:35.008Z,0.31
2023-01-29T03:02:13.386Z,0.30
2023-01-29T03:04:45.171Z,0.30
2023-01-29T03:07:50.697Z,0.26
2023-01-29T03:10:36.673Z,0.24
2023-01-29T03:13:15.871Z,0.24
2023-01-29T03:15:47.886Z,0.22
2023-01-29T03:18:30.185Z,0.24
2023-01-29T03:21:28.157Z,0.25
2023-01-29T03:24:16.449Z,0.20
2023-01-29T03:27:03.429Z,0.18
2023-01-29T03:29:56.530Z,0.17
2023-01-29T03:32:29.769Z,0.14
2023-01-29T03:35:03.610Z,0.17
2023-01-29T03:37:47.345Z,0.17
2023-01-29T03:40:17.019Z,0.16
2023-01-29T03:43:10.237Z,0.15
2023-01-29T03:45:57.774Z,0.15
2023-01-29T03:48:39.101Z,0.12
2023-01-29T03:51:24.134Z,0.12
2023-01-29T03:54:08.450Z,0.11
2023-01-29T03:56:56.806Z,0.10
2023-01-29T03:59:40.634Z,0.13
2023-01-29T04:02:27.356Z,0.17
2023-01-29T04:05:05.363Z,0.21
2023-01-29T04:07:36.049Z,0.18
2023-01-29T04:10:12.504Z,0.17
2023-01-29T04:12:47.870Z,0.16
2023-01-29T04:15:21.891Z,0.17
2023-01-29T04:17:52.231Z,0.20
2023-01-29T04:20:29.510Z,0.23
2023-01-29T04:22:56.935Z,0.22
2023-01-29T04:25:28.421Z,0.25
2023-01-29T04:28:05.171Z,0.26
2023-01-29T04:31:00.483Z,0.25
2023-01-29T04:33:58.380Z,0.22
2023-01-29T04:36:44.694Z,0.21
2023-01-29T04:39:17.638Z,0.22
2023-01-29T04:42:05.406Z,0.22
2023-01-29T04:44:40.897Z,0.23
2023-01-29T04:47:10.313Z,0.24
2023-01-29T04:49:46.300Z,0.26
2023-01-29T04:52:20.383Z,0.25
2023-01-29T04:55:25.009Z,0.26
2023-01-29T04:58:06.094Z,0.25
2023-01-29T05:00:40.684Z,0.25
2023-01-29T05:03:13.090Z,0.28
2023-01-29T05:05:43.780Z,0.31
2023-01-29T05:08:18.027Z,0.33
2023-01-29T05:10:48.181Z,0.31
2023-01-29T05:13:17.798Z,0.31
2023-01-29T05:15:50.100Z,0.32
2023-01-29T05:18:17.049Z,0.33
2023-01-29T05:20:47.494Z,0.37
2023-01-29T05:23:22.793Z,0.40
2023-01-29T05:25:52.208Z,0.37
2023-01-29T05:28:19.297Z,0.36
2023-01-29T05:30:48.662Z,0.39
2023-01-29T05:33:23.211Z,0.39
2023-01-29T05:35:50.408Z,0.37
2023-01-29T05:38:18.533Z,0.40
2023-01-29T05:57:20.468Z,0.47
2023-01-29T06:04:05.817Z,0.43
2023-01-29T06:14:32.338Z,0.45
2023-01-29T06:17:43.199Z,0.45
2023-01-29T06:24:29.330Z,0.41
2023-01-29T06:27:36.577Z,0.48
2023-01-29T06:34:24.602Z,0.58
2023-01-29T06:45:15.169Z,0.68
2023-01-29T06:56:02.086Z,0.75
2023-01-29T07:02:52.981Z,0.89
2023-01-29T07:06:01.486Z,1.00
2023-01-29T07:12:46.238Z,1.04
2023-01-29T07:23:34.913Z,1.33
2023-01-29T07:30:20.775Z,1.17
2023-01-29T07:37:08.112Z,1.18
2023-01-29T07:43:52.999Z,1.36
2023-01-29T07:50:39.230Z,1.59
2023-01-29T08:01:37.989Z,2.05
2023-01-29T08:12:45.012Z,2.08
2023-01-29T08:23:41.104Z,2.29
2023-01-29T08:34:11.365Z,2.31
2023-01-29T08:36:39.140Z,2.34
2023-01-29T08:43:24.281Z,2.29
2023-01-29T09:03:07.518Z,2.13
2023-01-29T09:09:51.774Z,1.78
2023-01-29T09:16:35.739Z,1.72
2023-01-29T09:31:39.832Z,1.96
2023-01-29T09:38:26.568Z,1.93
2023-01-29T09:49:38.910Z,2.01
2023-01-29T10:00:49.375Z,2.13
2023-01-29T10:20:23.701Z,1.94
2023-01-29T10:53:42.763Z,2.10
2023-01-29T11:04:46.483Z,2.30
2023-01-29T11:15:40.193Z,2.31
2023-01-29T11:26:23.950Z,2.19
2023-01-29T11:39:16.225Z,2.03
2023-01-29T11:41:53.902Z,1.99
2023-01-29T11:44:30.969Z,2.00
2023-01-29T11:47:14.962Z,2.04
2023-01-29T11:50:02.959Z,2.07
2023-01-29T11:52:41.052Z,2.04
2023-01-29T11:55:18.117Z,1.99
2023-01-29T11:58:08.919Z,1.96
2023-01-29T12:00:41.787Z,1.87
2023-01-29T12:03:20.271Z,1.89
2023-01-29T12:06:36.377Z,1.91
2023-01-29T12:09:17.057Z,1.94
2023-01-29T12:11:47.081Z,1.98
2023-01-29T12:14:34.392Z,1.98
2023-01-29T12:17:19.971Z,1.93
2023-01-29T12:20:01.710Z,1.93
2023-01-29T12:22:53.558Z,1.97
2023-01-29T12:25:34.221Z,1.98
2023-01-29T12:28:34.645Z,1.97
2023-01-29T12:31:19.615Z,1.89
2023-01-29T12:33:54.298Z,1.85
2023-01-29T12:36:34.646Z,1.83
2023-01-29T12:39:05.544Z,1.81
2023-01-29T12:41:41.624Z,1.77
2023-01-29T12:44:46.910Z,1.76
2023-01-29T12:47:35.918Z,1.75
2023-01-29T12:50:33.429Z,1.77
2023-01-29T12:53:17.122Z,1.77
2023-01-29T12:55:49.997Z,1.78
2023-01-29T12:58:24.521Z,1.77
2023-01-29T13:00:57.378Z,1.78
2023-01-29T13:03:34.529Z,1.81
2023-01-29T13:06:13.261Z,1.87
2023-01-29T13:08:41.532Z,1.91
2023-01-29T13:11:19.529Z,1.89
2023-01-29T13:14:04.483Z,1.89
2023-01-29T13:16:45.585Z,1.87
2023-01-29T13:19:41.132Z,1.84
2023-01-29T13:22:24.072Z,1.81
2023-01-29T13:25:20.102Z,1.89
2023-01-29T13:27:50.639Z,1.86
2023-01-29T13:30:42.154Z,1.86
2023-01-29T13:33:31.806Z,1.88
2023-01-29T13:36:00.329Z,1.89
2023-01-29T13:38:58.204Z,1.88
2023-01-29T13:41:36.338Z,1.90
2023-01-29T13:44:20.467Z,1.91
2023-01-29T13:47:09.781Z,1.89
2023-01-29T13:49:58.864Z,1.83
2023-01-29T13:52:45.315Z,1.75
2023-01-29T13:55:38.126Z,1.75
2023-01-29T14:03:00.479Z,1.74
2023-01-29T14:05:53.576Z,1.72
2023-01-29T14:08:47.726Z,1.69
2023-01-29T14:11:37.573Z,1.63
2023-01-29T14:14:49.682Z,1.55
2023-01-29T14:18:04.225Z,1.52
2023-01-29T14:21:34.755Z,1.48
2023-01-29T14:24:50.297Z,1.44
2023-01-29T14:27:49.164Z,1.44
2023-01-29T14:30:32.624Z,1.48
2023-01-29T14:33:31.820Z,1.45
2023-01-29T14:36:06.856Z,1.38
2023-01-29T14:38:36.937Z,1.34
2023-01-29T14:41:37.272Z,1.33
2023-01-29T14:44:47.614Z,1.33
2023-01-29T14:47:29.733Z,1.29
2023-01-29T14:50:03.816Z,1.23
2023-01-29T14:52:42.025Z,1.18
2023-01-29T14:55:52.816Z,1.13
2023-01-29T14:58:46.350Z,1.09
2023-01-29T15:01:33.645Z,1.07
2023-01-29T15:04:12.814Z,1.04
2023-01-29T15:06:50.569Z,1.00
2023-01-29T15:09:57.275Z,1.01
2023-01-29T15:12:50.466Z,1.01
2023-01-29T15:15:47.787Z,1.06
2023-01-29T15:18:45.677Z,1.07
2023-01-29T15:21:23.612Z,1.07
2023-01-29T15:24:30.566Z,1.07
2023-01-29T15:27:07.099Z,1.05
2023-01-29T15:29:38.335Z,1.03
2023-01-29T15:32:09.597Z,1.02
2023-01-29T15:34:42.638Z,1.00
2023-01-29T15:37:30.470Z,0.97
2023-01-29T15:40:02.387Z,0.93
2023-01-29T15:42:46.851Z,0.92
2023-01-29T15:45:32.901Z,0.91
2023-01-29T15:48:30.533Z,0.93
2023-01-29T15:51:06.181Z,0.89
2023-01-29T15:53:47.255Z,0.87
2023-01-29T15:56:20.300Z,0.83
2023-01-29T15:58:52.391Z,0.83
2023-01-29T16:01:34.293Z,0.84
2023-01-29T16:04:10.812Z,0.81
2023-01-29T16:06:43.942Z,0.76
2023-01-29T16:09:22.947Z,0.77
2023-01-29T16:11:53.721Z,0.77
2023-01-29T16:14:25.766Z,0.77
2023-01-29T16:16:54.321Z,0.79
2023-01-29T16:19:27.127Z,0.74
2023-01-29T16:23:05.931Z,0.73
2023-01-29T16:25:44.685Z,0.73
2023-01-29T16:28:18.190Z,0.75
2023-01-29T16:30:49.265Z,0.82
2023-01-29T16:33:19.862Z,0.80
2023-01-29T16:35:55.223Z,0.82
2023-01-29T16:41:27.193Z,0.72
2023-01-29T16:44:32.508Z,0.64
2023-01-29T16:47:15.150Z,0.64
2023-01-29T16:49:52.518Z,0.60
2023-01-29T16:55:50.796Z,0.48
2023-01-29T16:58:49.581Z,0.43
2023-01-29T17:01:31.021Z,0.39
2023-01-29T17:04:11.330Z,0.37
2023-01-29T17:06:43.968Z,0.37
2023-01-29T17:09:39.633Z,0.37
2023-01-29T17:12:43.015Z,0.39
2023-01-29T17:16:11.408Z,0.40
2023-01-29T17:18:54.320Z,0.47
2023-01-29T17:21:24.951Z,0.53
2023-01-29T17:24:00.545Z,0.57
2023-01-29T17:26:32.713Z,0.59
2023-01-29T17:29:12.127Z,0.56
2023-01-29T17:31:42.227Z,0.56
2023-01-29T17:34:16.183Z,0.56
2023-01-29T17:37:02.837Z,0.53
2023-01-29T17:39:32.389Z,0.50
2023-01-29T17:42:19.179Z,0.48
2023-01-29T17:44:58.168Z,0.47
2023-01-29T17:47:43.118Z,0.48
2023-01-29T17:50:30.414Z,0.46
2023-01-29T17:53:00.569Z,0.45
2023-01-29T17:55:28.994Z,0.42
2023-01-29T17:58:00.559Z,0.39
2023-01-29T18:00:30.324Z,0.36
2023-01-29T18:03:02.666Z,0.34
2023-01-29T18:05:30.945Z,0.31
2023-01-29T18:07:59.247Z,0.27
2023-01-29T18:10:30.674Z,0.23
2023-01-29T18:24:47.230Z,0.22
2023-01-29T18:27:17.987Z,0.24
2023-01-29T18:29:50.522Z,0.27
2023-01-29T18:32:29.466Z,0.27
2023-01-29T18:35:06.278Z,0.24
2023-01-29T18:37:34.577Z,0.23
2023-01-29T18:40:19.838Z,0.22
2023-01-29T18:42:49.228Z,0.18
2023-01-29T18:45:17.619Z,0.13
2023-01-29T18:47:46.445Z,0.08
2023-01-29T18:50:14.615Z,0.11
2023-01-29T18:52:45.323Z,0.14
2023-01-29T18:55:15.760Z,0.11
2023-01-29T18:58:26.997Z,0.12
2023-01-29T19:00:33.187Z,0.15
2023-01-29T19:03:01.512Z,0.18
2023-01-29T19:05:29.720Z,0.22
2023-01-29T19:07:58.083Z,0.24
2023-01-29T19:10:26.525Z,0.23
2023-01-29T19:12:54.746Z,0.23
2023-01-29T19:15:23.475Z,0.26
2023-01-29T19:17:54.707Z,0.29
2023-01-29T19:20:26.029Z,0.33
2023-01-29T19:23:18.590Z,0.35
2023-01-29T19:26:02.426Z,0.34
2023-01-29T19:28:36.054Z,0.34
2023-01-29T19:31:04.920Z,0.33
2023-01-29T19:33:33.288Z,0.36
2023-01-29T19:36:02.161Z,0.37
2023-01-29T19:38:33.733Z,0.40
2023-01-29T19:41:02.427Z,0.43
2023-01-29T19:43:37.399Z,0.44
2023-01-29T19:46:11.996Z,0.46
2023-01-29T19:48:50.760Z,0.48
2023-01-29T19:51:22.119Z,0.50
2023-01-29T19:53:54.491Z,0.49
2023-01-29T19:56:28.614Z,0.52
2023-01-29T19:59:00.592Z,0.51
2023-01-29T20:01:34.415Z,0.54
2023-01-29T20:04:03.899Z,0.57
2023-01-29T20:06:32.520Z,0.60
2023-01-29T20:09:03.031Z,0.64
2023-01-29T20:11:32.101Z,0.65
2023-01-29T20:14:05.126Z,0.58
2023-01-29T20:16:37.206Z,0.52
2023-01-29T20:19:14.269Z,0.41
2023-01-29T20:21:48.953Z,0.35
2023-01-29T20:24:18.200Z,0.34
2023-01-29T20:30:11.385Z,0.25
2023-01-29T20:32:40.549Z,0.21
2023-01-29T20:35:38.978Z,0.21
2023-01-29T20:38:11.974Z,0.23
2023-01-29T20:41:03.454Z,0.16
2023-01-29T20:43:32.224Z,0.17
2023-01-29T20:46:04.039Z,0.19
2023-01-29T20:48:33.378Z,0.21
2023-01-29T20:51:11.218Z,0.23
2023-01-29T20:53:41.332Z,0.25
2023-01-29T20:56:10.253Z,0.26
2023-01-29T20:58:43.979Z,0.27
2023-01-29T21:01:17.114Z,0.24
2023-01-29T21:03:46.669Z,0.26
2023-01-29T21:06:16.014Z,0.27
2023-01-29T21:08:44.432Z,0.28
2023-01-29T21:11:15.493Z,0.31
2023-01-29T21:13:44.096Z,0.33
2023-01-29T21:16:12.914Z,0.36
2023-01-29T21:18:44.448Z,0.38
2023-01-29T21:21:15.270Z,0.36
2023-01-29T21:23:43.511Z,0.35
2023-01-29T21:26:14.999Z,0.35
2023-01-29T21:28:44.648Z,0.36
2023-01-29T21:31:17.871Z,0.38
2023-01-29T21:33:46.291Z,0.40
2023-01-29T21:36:15.792Z,0.42
2023-01-29T21:38:44.101Z,0.44
2023-01-29T21:41:12.915Z,0.45
2023-01-29T21:43:41.057Z,0.48
2023-01-29T21:46:12.269Z,0.51
2023-01-29T21:48:41.714Z,0.54
2023-01-29T21:51:09.958Z,0.55
2023-01-29T21:53:38.292Z,0.57
2023-01-29T21:56:06.653Z,0.59
2023-01-29T21:58:36.085Z,0.61
2023-01-29T22:01:35.187Z,0.65
2023-01-29T22:03:58.096Z,0.67
2023-01-29T22:06:26.805Z,0.67
2023-01-29T22:08:54.968Z,0.67
2023-01-29T22:11:23.137Z,0.68
2023-01-29T22:13:51.170Z,0.69
2023-01-29T22:16:24.747Z,0.69
2023-01-29T22:18:52.983Z,0.66
2023-01-29T22:21:22.610Z,0.67
2023-01-29T22:23:52.192Z,0.67
2023-01-29T22:26:20.484Z,0.67
2023-01-29T22:28:50.164Z,0.66
2023-01-29T22:31:19.641Z,0.65
2023-01-29T22:33:49.133Z,0.61
2023-01-29T22:36:17.388Z,0.58
2023-01-29T22:38:46.856Z,0.59
2023-01-29T22:41:15.547Z,0.57
2023-01-29T22:43:44.221Z,0.57
2023-01-29T22:46:32.497Z,0.57
2023-01-29T22:49:00.617Z,0.54
2023-01-29T22:51:29.064Z,0.53
2023-01-29T22:53:57.915Z,0.49
2023-01-29T22:56:28.314Z,0.43
2023-01-29T22:59:00.521Z,0.36
2023-01-29T23:01:31.417Z,0.32
2023-01-29T23:03:59.604Z,0.33
2023-01-29T23:06:27.724Z,0.33
2023-01-29T23:08:56.194Z,0.32
2023-01-29T23:11:24.360Z,0.31
2023-01-29T23:13:55.682Z,0.32
2023-01-29T23:16:28.008Z,0.32
2023-01-29T23:18:56.744Z,0.29
2023-01-29T23:21:25.585Z,0.27
2023-01-29T23:23:55.564Z,0.26
2023-01-29T23:26:43.050Z,0.25
2023-01-29T23:29:11.704Z,0.28
2023-01-29T23:31:39.856Z,0.30
2023-01-29T23:34:08.043Z,0.29
2023-01-29T23:36:36.159Z,0.31
2023-01-29T23:39:05.012Z,0.31
2023-01-29T23:41:33.553Z,0.29
2023-01-29T23:44:01.692Z,0.26
2023-01-29T23:46:30.291Z,0.17
2023-01-29T23:49:01.586Z,0.14
2023-01-29T23:51:29.880Z,0.08
2023-01-29T23:53:58.080Z,0.02
2023-01-29T23:56:27.917Z,0.03
2023-01-29T23:58:57.464Z,0.05
